Time;durP1;ratioP1;P1;durP2;ratioP2;P2;SDS_P1;SDS_P2;PMS_P1;PMS_P2;Temp;Humidity;BMP_temperature;BMP_pressure;BME280_temperature;BME280_humidity;BME280_pressure;Samples;Min_cycle;Max_cycle;Signal;HPM_P1;HPM_P2
2021/05/12 00:00:56;;;;;;;0.90;0.90;;;14.00;99.90;;;;;;4995142;28;20179;-78
2021/05/12 00:03:21;;;;;;;0.40;0.40;;;14.00;99.90;;;;;;5012501;28;20176;-77
2021/05/12 00:05:47;;;;;;;1.00;0.90;;;13.80;99.90;;;;;;5012373;28;20176;-77
2021/05/12 00:08:12;;;;;;;1.00;0.80;;;13.90;99.90;;;;;;4994864;28;20652;-79
2021/05/12 00:10:38;;;;;;;1.15;1.08;;;13.90;99.90;;;;;;5011970;28;20250;-78
2021/05/12 00:13:03;;;;;;;0.70;0.70;;;13.90;99.90;;;;;;5012155;28;20190;-78
2021/05/12 00:15:29;;;;;;;2.30;1.98;;;13.90;99.90;;;;;;4994843;28;20204;-77
2021/05/12 00:17:55;;;;;;;2.75;2.50;;;13.90;99.90;;;;;;5013300;28;20287;-77
2021/05/12 00:20:26;;;;;;;3.35;2.95;;;14.10;99.90;;;;;;5015873;28;20180;-78
2021/05/12 00:22:58;;;;;;;7.97;2.33;;;14.00;99.90;;;;;;5015965;28;20647;-78
2021/05/12 00:25:24;;;;;;;4.95;2.72;;;14.10;99.90;;;;;;5016023;28;20199;-78
2021/05/12 00:27:49;;;;;;;2.72;2.35;;;14.00;99.90;;;;;;5015715;28;20648;-78
2021/05/12 00:30:18;;;;;;;5.70;2.40;;;13.90;99.90;;;;;;5015980;28;20192;-78
2021/05/12 00:32:45;;;;;;;2.45;2.20;;;13.80;99.90;;;;;;5015651;28;20253;-79
2021/05/12 00:35:12;;;;;;;2.97;2.63;;;13.90;99.90;;;;;;5015719;28;20169;-78
2021/05/12 00:37:39;;;;;;;2.63;2.28;;;14.00;99.90;;;;;;5015540;28;20189;-77
2021/05/12 00:40:06;;;;;;;3.05;2.78;;;14.00;99.90;;;;;;5015562;28;20176;-77
2021/05/12 00:42:33;;;;;;;2.88;2.58;;;14.10;99.90;;;;;;5015832;28;20212;-78
2021/05/12 00:44:59;;;;;;;3.67;3.15;;;14.10;99.90;;;;;;5015563;28;20188;-78
2021/05/12 00:47:29;;;;;;;5.75;2.72;;;14.00;99.90;;;;;;5015296;28;20187;-78
2021/05/12 00:49:56;;;;;;;4.07;3.35;;;14.00;99.90;;;;;;5015485;28;20168;-77
2021/05/12 00:52:23;;;;;;;4.43;3.95;;;14.00;99.90;;;;;;5015412;28;20168;-79
2021/05/12 00:54:49;;;;;;;3.67;3.35;;;14.00;99.90;;;;;;5015496;28;20156;-78
2021/05/12 00:57:15;;;;;;;4.93;3.70;;;14.10;99.90;;;;;;4997548;28;20539;-79
2021/05/12 00:59:43;;;;;;;8.50;2.78;;;13.90;99.90;;;;;;4997621;28;20216;-78
2021/05/12 01:02:09;;;;;;;3.25;2.95;;;13.50;99.90;;;;;;5015366;28;20243;-79
2021/05/12 01:04:36;;;;;;;8.68;3.70;;;13.50;99.90;;;;;;5015442;28;20172;-78
2021/05/12 01:07:02;;;;;;;4.43;3.40;;;13.50;99.90;;;;;;5015212;28;20246;-79
2021/05/12 01:09:27;;;;;;;4.20;2.90;;;13.30;99.90;;;;;;4997806;28;20264;-78
2021/05/12 01:11:53;;;;;;;7.40;3.53;;;13.30;99.90;;;;;;5015117;28;20230;-80
2021/05/12 01:14:20;;;;;;;7.32;3.85;;;13.30;99.90;;;;;;4997278;28;20568;-79
2021/05/12 01:16:47;;;;;;;3.95;2.70;;;13.20;99.90;;;;;;5014892;28;20332;-80
2021/05/12 01:19:13;;;;;;;3.47;3.17;;;13.20;99.90;;;;;;4997165;28;20594;-79
2021/05/12 01:21:39;;;;;;;3.53;2.85;;;13.30;99.90;;;;;;5015480;28;20250;-78
2021/05/12 01:24:05;;;;;;;3.97;3.05;;;13.40;99.90;;;;;;5015106;28;20210;-78
2021/05/12 01:26:31;;;;;;;4.18;2.90;;;13.20;99.90;;;;;;5014574;28;20637;-78
2021/05/12 01:28:57;;;;;;;3.67;2.63;;;13.10;99.90;;;;;;5014529;28;20168;-79
2021/05/12 01:31:28;;;;;;;4.30;2.83;;;12.90;99.90;;;;;;5014934;28;20608;-79
2021/05/12 01:33:54;;;;;;;5.30;3.17;;;12.70;99.90;;;;;;4997167;28;20183;-79
2021/05/12 01:36:20;;;;;;;4.45;2.92;;;12.80;99.90;;;;;;4997132;28;20194;-78
2021/05/12 01:38:48;;;;;;;3.55;2.72;;;12.90;99.90;;;;;;5014435;28;20758;-79
2021/05/12 01:41:14;;;;;;;4.18;2.65;;;12.80;99.90;;;;;;5014492;28;20882;-79
2021/05/12 01:43:41;;;;;;;4.43;2.75;;;13.00;99.90;;;;;;5014319;28;20176;-79
2021/05/12 01:46:07;;;;;;;4.72;2.53;;;12.80;99.90;;;;;;5014299;28;20256;-79
2021/05/12 01:48:33;;;;;;;4.22;2.53;;;12.80;99.90;;;;;;5014067;28;20212;-79
2021/05/12 01:50:59;;;;;;;4.20;2.35;;;12.90;99.90;;;;;;5013955;28;20169;-79
2021/05/12 01:53:25;;;;;;;3.42;3.13;;;13.00;99.90;;;;;;5014285;28;20165;-79
2021/05/12 01:55:51;;;;;;;4.10;3.05;;;13.10;99.90;;;;;;5014363;28;20179;-79
2021/05/12 01:58:18;;;;;;;4.32;3.38;;;13.00;99.90;;;;;;5014201;28;20216;-78
2021/05/12 02:00:49;;;;;;;4.97;2.90;;;12.90;99.90;;;;;;5013959;28;20613;-78
2021/05/12 02:03:16;;;;;;;4.47;2.78;;;12.90;99.90;;;;;;5013948;28;20204;-77
2021/05/12 02:05:42;;;;;;;3.80;2.83;;;12.80;99.90;;;;;;5013778;28;20173;-79
2021/05/12 02:08:10;;;;;;;3.08;2.58;;;12.80;99.90;;;;;;5013564;28;20188;-78
2021/05/12 02:10:37;;;;;;;3.47;3.17;;;12.80;99.90;;;;;;5013724;28;20655;-78
2021/05/12 02:13:04;;;;;;;3.83;3.28;;;12.90;99.90;;;;;;5013946;28;20175;-78
2021/05/12 02:15:29;;;;;;;3.50;3.20;;;12.70;99.90;;;;;;5013942;28;20202;-78
2021/05/12 02:17:55;;;;;;;4.47;2.78;;;12.60;99.90;;;;;;5013575;28;20239;-78
2021/05/12 02:20:26;;;;;;;4.68;2.97;;;12.60;99.90;;;;;;5013895;28;20246;-78
2021/05/12 02:22:52;;;;;;;3.67;2.28;;;12.60;99.90;;;;;;5013822;28;20160;-78
2021/05/12 02:25:18;;;;;;;4.28;3.03;;;12.60;99.90;;;;;;5013740;28;20173;-78
2021/05/12 02:27:44;;;;;;;5.95;2.28;;;12.60;99.90;;;;;;5013380;28;20216;-78
2021/05/12 02:30:11;;;;;;;5.32;3.40;;;12.80;99.90;;;;;;5013829;28;20194;-78
2021/05/12 02:32:37;;;;;;;2.60;2.40;;;12.80;99.90;;;;;;5013618;28;20609;-79
2021/05/12 02:35:04;;;;;;;4.28;3.10;;;12.60;99.90;;;;;;5013630;28;20222;-79
2021/05/12 02:37:30;;;;;;;7.85;2.88;;;12.60;99.90;;;;;;5013102;28;20727;-77
2021/05/12 02:39:56;;;;;;;5.97;3.10;;;12.60;99.90;;;;;;5012753;28;20287;-79
2021/05/12 02:42:22;;;;;;;7.78;2.90;;;12.50;99.90;;;;;;5013338;28;20207;-79
2021/05/12 02:44:47;;;;;;;4.05;2.50;;;12.30;99.90;;;;;;5013513;28;20219;-79
2021/05/12 02:47:13;;;;;;;2.83;2.53;;;12.40;99.90;;;;;;5013706;28;20180;-77
2021/05/12 02:49:39;;;;;;;4.82;2.83;;;12.40;99.90;;;;;;5019283;28;20203;-78
2021/05/12 02:52:05;;;;;;;9.52;3.33;;;12.40;99.90;;;;;;5013738;28;20169;-77
2021/05/12 02:54:31;;;;;;;3.67;2.92;;;12.30;99.90;;;;;;5013137;28;20165;-78
2021/05/12 02:56:56;;;;;;;3.47;2.85;;;12.30;99.90;;;;;;5012915;28;20670;-79
2021/05/12 02:59:22;;;;;;;3.85;2.78;;;12.30;99.90;;;;;;5013056;28;20299;-79
2021/05/12 03:01:48;;;;;;;5.20;2.13;;;12.20;99.90;;;;;;5013117;28;20171;-79
2021/05/12 03:04:13;;;;;;;2.00;1.80;;;12.10;99.90;;;;;;5012949;28;20214;-78
2021/05/12 03:06:39;;;;;;;3.00;2.50;;;12.00;99.90;;;;;;5012927;28;20255;-78
2021/05/12 03:09:07;;;;;;;2.63;2.30;;;11.90;99.90;;;;;;5012921;28;20176;-78
2021/05/12 03:11:33;;;;;;;4.68;2.58;;;12.10;99.90;;;;;;4995037;28;20180;-78
2021/05/12 03:13:58;;;;;;;3.15;2.50;;;12.10;99.90;;;;;;5012755;28;20532;-78
2021/05/12 03:16:24;;;;;;;4.25;2.22;;;12.10;99.90;;;;;;5012675;28;20168;-78
2021/05/12 03:18:50;;;;;;;3.88;2.53;;;12.00;99.90;;;;;;5012205;28;20212;-78
2021/05/12 03:21:15;;;;;;;4.72;2.40;;;11.90;99.90;;;;;;5012620;28;20161;-78
2021/05/12 03:23:41;;;;;;;4.25;2.38;;;11.90;99.90;;;;;;5012804;28;20175;-78
2021/05/12 03:26:07;;;;;;;7.15;2.30;;;11.90;99.90;;;;;;5012871;28;20207;-78
2021/05/12 03:28:32;;;;;;;9.15;3.03;;;11.90;99.90;;;;;;5012455;28;20246;-78
2021/05/12 03:30:58;;;;;;;2.50;2.30;;;11.90;99.90;;;;;;5012831;28;20175;-78
2021/05/12 03:33:24;;;;;;;3.50;2.47;;;11.80;99.90;;;;;;5012840;28;20169;-78
2021/05/12 03:35:49;;;;;;;9.98;2.75;;;11.80;99.90;;;;;;4994665;28;20199;-78
2021/05/12 03:38:15;;;;;;;3.85;2.53;;;11.90;99.90;;;;;;5012330;28;20219;-78
2021/05/12 03:40:41;;;;;;;4.35;2.80;;;11.80;99.90;;;;;;5012673;28;20169;-78
2021/05/12 03:43:08;;;;;;;6.70;2.45;;;11.70;99.90;;;;;;5012695;28;20624;-78
2021/05/12 03:45:34;;;;;;;5.13;2.70;;;11.70;99.90;;;;;;5012694;28;20275;-78
2021/05/12 03:47:59;;;;;;;2.92;2.55;;;11.90;99.90;;;;;;5012310;28;20664;-79
2021/05/12 03:50:27;;;;;;;3.35;2.42;;;11.90;99.90;;;;;;5012149;28;20172;-78
2021/05/12 03:52:53;;;;;;;2.05;1.83;;;11.70;99.90;;;;;;5013900;28;20187;-78
2021/05/12 03:55:19;;;;;;;3.10;2.20;;;11.80;99.90;;;;;;5017113;28;20620;-77
2021/05/12 03:57:45;;;;;;;3.10;2.40;;;11.80;99.90;;;;;;5016452;28;20195;-79
2021/05/12 04:00:12;;;;;;;2.55;2.17;;;11.80;99.90;;;;;;5016612;28;20175;-78
2021/05/12 04:02:37;;;;;;;3.00;2.67;;;11.70;99.90;;;;;;5016151;28;20172;-78
2021/05/12 04:05:04;;;;;;;8.15;2.75;;;11.70;99.90;;;;;;5016282;28;20165;-79
2021/05/12 04:07:29;;;;;;;3.00;1.92;;;11.70;99.90;;;;;;4998289;28;20731;-78
2021/05/12 04:09:55;;;;;;;3.17;1.90;;;11.80;99.90;;;;;;5016126;28;20234;-78
2021/05/12 04:12:21;;;;;;;2.72;2.10;;;11.90;99.90;;;;;;5015731;28;20191;-78
2021/05/12 04:14:46;;;;;;;1.95;1.67;;;11.80;99.90;;;;;;5016073;28;20189;-79
2021/05/12 04:17:12;;;;;;;3.00;1.80;;;11.70;99.90;;;;;;5016319;28;20648;-78
2021/05/12 04:19:38;;;;;;;3.85;1.65;;;11.60;99.90;;;;;;5015906;28;20283;-78
2021/05/12 04:22:03;;;;;;;2.95;2.10;;;11.70;99.90;;;;;;5016209;28;20173;-79
2021/05/12 04:24:30;;;;;;;3.05;2.00;;;11.90;99.90;;;;;;5016083;28;20243;-77
2021/05/12 04:26:55;;;;;;;2.13;1.75;;;12.10;99.90;;;;;;5015764;28;20589;-79
2021/05/12 04:29:21;;;;;;;7.63;2.67;;;12.30;99.90;;;;;;5015734;28;20207;-79
2021/05/12 04:31:47;;;;;;;4.35;1.55;;;12.40;99.90;;;;;;4998160;28;20648;-77
2021/05/12 04:34:12;;;;;;;2.97;1.60;;;12.60;99.90;;;;;;5015770;28;20176;-78
2021/05/12 04:36:39;;;;;;;1.58;1.33;;;12.80;99.90;;;;;;4997754;28;20218;-78
2021/05/12 04:39:05;;;;;;;1.70;1.55;;;12.80;99.90;;;;;;5015493;28;20215;-78
2021/05/12 04:41:30;;;;;;;3.47;1.60;;;12.90;99.90;;;;;;5015719;28;20165;-78
2021/05/12 04:43:56;;;;;;;1.92;1.83;;;13.00;99.90;;;;;;5015631;28;20179;-78
2021/05/12 04:46:23;;;;;;;1.65;1.48;;;13.10;99.90;;;;;;5015575;28;20172;-79
2021/05/12 04:48:49;;;;;;;1.70;1.52;;;13.40;99.90;;;;;;4997882;28;20656;-79
2021/05/12 04:51:14;;;;;;;2.20;1.63;;;13.40;99.90;;;;;;5015412;28;20173;-78
2021/05/12 04:53:40;;;;;;;1.55;1.40;;;13.50;99.90;;;;;;5015246;28;20184;-79
2021/05/12 04:56:06;;;;;;;1.30;1.20;;;13.70;99.90;;;;;;5015322;28;20169;-79
2021/05/12 04:58:31;;;;;;;1.67;1.55;;;13.70;99.90;;;;;;4997395;28;20566;-78
2021/05/12 05:00:57;;;;;;;2.15;1.20;;;13.70;99.90;;;;;;5015286;28;20525;-78
2021/05/12 05:03:22;;;;;;;1.55;1.35;;;13.50;99.90;;;;;;5014456;28;20656;-79
2021/05/12 05:05:48;;;;;;;2.03;1.83;;;13.40;99.90;;;;;;5014989;28;20172;-79
2021/05/12 05:08:14;;;;;;;6.05;1.63;;;13.10;99.90;;;;;;5014899;28;20185;-81
2021/05/12 05:10:40;;;;;;;1.27;1.17;;;12.80;99.90;;;;;;4997228;28;20207;-78
2021/05/12 05:13:06;;;;;;;2.03;1.50;;;13.00;99.90;;;;;;5014965;28;20176;-78
2021/05/12 05:15:32;;;;;;;2.65;1.45;;;12.90;99.90;;;;;;5015140;28;20180;-78
2021/05/12 05:17:58;;;;;;;1.95;1.25;;;12.80;99.90;;;;;;5014712;28;20208;-79
2021/05/12 05:20:25;;;;;;;1.27;1.17;;;12.80;99.90;;;;;;5014884;28;20230;-78
2021/05/12 05:22:51;;;;;;;1.20;1.10;;;13.10;99.90;;;;;;5014537;28;20640;-78
2021/05/12 05:25:16;;;;;;;6.18;1.63;;;13.20;99.90;;;;;;5014337;28;20211;-79
2021/05/12 05:27:42;;;;;;;2.97;1.35;;;13.30;99.90;;;;;;5014610;28;20189;-79
2021/05/12 05:30:08;;;;;;;1.65;1.35;;;13.40;99.90;;;;;;4996940;28;20264;-79
2021/05/12 05:32:34;;;;;;;3.40;1.45;;;13.40;99.90;;;;;;5014554;28;20168;-79
2021/05/12 05:34:59;;;;;;;1.92;1.50;;;13.40;99.90;;;;;;5014251;28;20165;-79
2021/05/12 05:37:25;;;;;;;3.47;1.65;;;13.50;99.90;;;;;;5014149;28;20185;-79
2021/05/12 05:39:51;;;;;;;2.25;1.35;;;13.60;99.90;;;;;;5014161;28;20240;-79
2021/05/12 05:42:17;;;;;;;1.98;1.15;;;13.60;99.90;;;;;;5014118;28;20555;-79
2021/05/12 05:44:43;;;;;;;1.58;1.48;;;13.60;99.90;;;;;;5014102;28;20176;-78
2021/05/12 05:47:09;;;;;;;2.40;1.42;;;13.30;99.90;;;;;;5013290;28;20183;-78
2021/05/12 05:49:37;;;;;;;4.05;1.92;;;13.50;99.90;;;;;;5013158;28;20502;-79
2021/05/12 05:52:03;;;;;;;4.63;1.35;;;13.50;99.90;;;;;;5013456;28;20165;-79
2021/05/12 05:54:29;;;;;;;1.45;1.33;;;13.60;99.90;;;;;;5013813;28;20165;-82
2021/05/12 05:56:55;;;;;;;4.10;1.65;;;13.80;99.90;;;;;;5013673;28;20243;-79
2021/05/12 05:59:21;;;;;;;1.98;1.73;;;13.90;99.90;;;;;;4996036;28;20217;-79
2021/05/12 06:01:46;;;;;;;4.22;1.63;;;13.60;99.90;;;;;;5013466;28;20191;-80
2021/05/12 06:04:12;;;;;;;6.57;1.15;;;13.40;99.90;;;;;;4996374;28;20179;-78
2021/05/12 06:06:38;;;;;;;1.77;1.50;;;13.50;99.90;;;;;;5013962;28;20239;-81
2021/05/12 06:09:04;;;;;;;6.85;2.10;;;13.70;99.90;;;;;;5013283;28;20224;-81
2021/05/12 06:11:29;;;;;;;50.92;3.88;;;14.00;99.90;;;;;;5014716;28;20212;-79
2021/05/12 06:13:55;;;;;;;19.05;3.15;;;14.10;99.90;;;;;;5013336;28;20582;-79
2021/05/12 06:16:21;;;;;;;3.83;2.08;;;14.20;99.90;;;;;;5011905;28;20199;-80
2021/05/12 06:18:47;;;;;;;20.48;2.80;;;14.10;99.90;;;;;;5013247;28;20212;-80
2021/05/12 06:21:13;;;;;;;4.72;1.98;;;14.20;99.90;;;;;;5012961;28;20264;-80
2021/05/12 06:23:40;;;;;;;4.78;1.33;;;14.30;99.90;;;;;;5013174;28;20196;-80
2021/05/12 06:26:14;;;;;;;5.80;1.90;;;14.50;99.90;;;;;;5012763;28;20247;-81
2021/05/12 06:28:44;;;;;;;9.85;2.17;;;14.50;99.90;;;;;;4995293;28;20283;-80
2021/05/12 06:31:10;;;;;;;6.97;1.75;;;14.40;99.90;;;;;;5012731;28;20202;-80
2021/05/12 06:33:38;;;;;;;1.90;1.30;;;14.60;99.90;;;;;;5012606;28;20169;-81
2021/05/12 06:36:08;;;;;;;4.63;1.95;;;14.70;99.90;;;;;;5012614;28;20181;-80
2021/05/12 06:38:33;;;;;;;23.80;4.63;;;14.80;99.90;;;;;;5012651;28;20703;-81
2021/05/12 06:40:59;;;;;;;9.05;3.58;;;14.90;99.90;;;;;;5012967;28;20172;-80
2021/05/12 06:43:26;;;;;;;5.10;2.25;;;14.80;99.90;;;;;;5012303;28;20175;-80
2021/05/12 06:45:52;;;;;;;49.45;10.32;;;14.80;99.90;;;;;;5012776;28;20203;-81
2021/05/12 06:48:17;;;;;;;17.98;3.83;;;14.70;99.90;;;;;;5013004;28;20184;-81
2021/05/12 06:50:44;;;;;;;10.35;1.52;;;14.60;99.90;;;;;;5015896;28;20226;-80
2021/05/12 06:53:10;;;;;;;2.03;1.08;;;14.70;99.90;;;;;;5013719;28;20533;-80
2021/05/12 06:55:36;;;;;;;5.20;1.75;;;14.60;99.90;;;;;;5013334;28;20168;-78
2021/05/12 06:58:02;;;;;;;13.93;2.42;;;14.70;99.90;;;;;;5012728;28;20235;-81
2021/05/12 07:00:28;;;;;;;15.95;4.30;;;14.70;99.90;;;;;;5013503;28;20247;-83
2021/05/12 07:02:54;;;;;;;23.65;5.75;;;14.70;99.90;;;;;;5013353;28;20207;-82
2021/05/12 07:05:21;;;;;;;21.80;5.15;;;14.90;99.90;;;;;;5012891;28;20176;-79
2021/05/12 07:07:47;;;;;;;31.15;5.20;;;15.10;99.90;;;;;;4996259;28;20189;-81
2021/05/12 07:10:13;;;;;;;5.05;1.38;;;15.40;99.90;;;;;;5014164;28;20594;-81
2021/05/12 07:12:39;;;;;;;22.50;2.30;;;16.10;99.90;;;;;;5013380;28;20616;-81
2021/05/12 07:15:07;;;;;;;4.10;1.13;;;16.90;99.90;;;;;;5013854;28;20239;-81
2021/05/12 07:17:33;;;;;;;3.05;1.50;;;17.60;99.90;;;;;;4994620;28;20216;-81
2021/05/12 07:19:58;;;;;;;25.15;4.22;;;18.50;99.90;;;;;;5012458;28;20240;-77
2021/05/12 07:22:24;;;;;;;29.20;3.63;;;19.30;99.90;;;;;;5012610;28;20165;-81
2021/05/12 07:24:50;;;;;;;3.50;0.90;;;19.70;99.90;;;;;;4995394;28;20191;-78
2021/05/12 07:27:16;;;;;;;4.28;1.85;;;20.20;99.90;;;;;;5012047;28;20222;-80
2021/05/12 07:29:42;;;;;;;79.80;12.07;;;19.30;99.90;;;;;;5012479;28;20175;-79
2021/05/12 07:32:08;;;;;;;2.85;0.90;;;19.30;99.90;;;;;;4994831;28;20176;-82
2021/05/12 07:34:33;;;;;;;7.82;2.33;;;19.90;99.90;;;;;;5013081;28;20536;-79
2021/05/12 07:36:59;;;;;;;3.80;1.00;;;19.70;99.90;;;;;;5012455;28;20192;-79
2021/05/12 07:39:26;;;;;;;8.93;1.75;;;19.60;99.90;;;;;;5012277;28;20208;-80
2021/05/12 07:41:52;;;;;;;15.13;1.98;;;19.30;99.90;;;;;;4994749;28;20698;-82
2021/05/12 07:44:18;;;;;;;4.60;1.88;;;18.90;99.90;;;;;;5012218;28;20168;-80
2021/05/12 07:46:44;;;;;;;51.63;9.27;;;18.60;99.90;;;;;;5012150;28;20556;-79
2021/05/12 07:49:10;;;;;;;15.10;3.88;;;18.60;99.90;;;;;;5012513;28;20172;-79
2021/05/12 07:51:35;;;;;;;3.50;1.02;;;18.50;99.90;;;;;;5012638;28;20476;-79
2021/05/12 07:54:01;;;;;;;4.53;0.90;;;18.20;99.90;;;;;;5012443;28;20199;-78
2021/05/12 07:56:26;;;;;;;4.13;2.53;;;17.90;99.90;;;;;;5012181;28;20200;-80
2021/05/12 07:58:52;;;;;;;1.40;0.88;;;17.70;99.90;;;;;;5012132;28;20204;-79
2021/05/12 08:01:27;;;;;;;2.55;1.08;;;17.80;99.90;;;;;;5012135;28;20165;-80
2021/05/12 08:03:52;;;;;;;4.47;1.02;;;17.80;99.90;;;;;;5011807;28;20176;-79
2021/05/12 08:06:18;;;;;;;5.53;1.10;;;17.80;99.90;;;;;;5011992;28;20243;-80
2021/05/12 08:08:43;;;;;;;1.63;1.10;;;17.90;99.90;;;;;;5011916;28;20204;-82
2021/05/12 08:11:09;;;;;;;1.25;0.90;;;17.70;99.90;;;;;;4993845;28;20211;-81
2021/05/12 08:13:35;;;;;;;1.92;1.10;;;17.90;99.90;;;;;;5011215;28;20204;-80
2021/05/12 08:16:01;;;;;;;8.23;1.50;;;17.90;99.90;;;;;;5011947;28;20165;-81
2021/05/12 08:18:26;;;;;;;4.03;1.30;;;17.90;99.90;;;;;;5011840;28;20211;-81
2021/05/12 08:20:52;;;;;;;2.08;1.05;;;17.80;99.90;;;;;;5011943;28;20194;-79
2021/05/12 08:23:19;;;;;;;3.92;0.93;;;17.50;99.90;;;;;;5011605;28;20161;-80
2021/05/12 08:25:45;;;;;;;1.73;1.08;;;17.80;99.90;;;;;;5011555;28;20171;-80
2021/05/12 08:28:12;;;;;;;1.45;0.63;;;17.80;99.90;;;;;;5011646;28;20180;-80
2021/05/12 08:30:40;;;;;;;2.13;0.95;;;17.70;99.90;;;;;;5011329;28;20177;-81
2021/05/12 08:33:05;;;;;;;4.68;1.20;;;17.80;99.90;;;;;;5011674;28;20168;-80
2021/05/12 08:35:31;;;;;;;1.67;0.93;;;17.20;99.90;;;;;;5011643;28;20251;-81
2021/05/12 08:37:57;;;;;;;3.83;1.10;;;17.10;99.90;;;;;;5011374;28;20539;-81
2021/05/12 08:40:23;;;;;;;4.03;1.30;;;17.30;99.90;;;;;;5015759;28;20175;-81
2021/05/12 08:42:50;;;;;;;1.38;0.80;;;17.50;99.90;;;;;;5016013;28;20167;-81
2021/05/12 08:45:18;;;;;;;1.85;0.98;;;17.60;99.90;;;;;;4997962;28;20660;-80
2021/05/12 08:47:45;;;;;;;5.22;1.65;;;17.90;99.90;;;;;;5015301;28;20200;-80
2021/05/12 08:50:11;;;;;;;0.50;0.50;;;18.00;99.90;;;;;;5014878;28;20167;-80
2021/05/12 08:52:37;;;;;;;14.38;2.20;;;18.20;99.90;;;;;;5014827;28;20231;-81
2021/05/12 08:55:04;;;;;;;4.93;1.92;;;18.40;99.90;;;;;;4997245;28;20204;-81
2021/05/12 08:57:36;;;;;;;3.83;1.17;;;18.40;99.90;;;;;;4997143;28;20603;-79
2021/05/12 09:00:02;;;;;;;30.33;6.97;;;18.60;99.90;;;;;;5014526;28;20294;-80
2021/05/12 09:02:28;;;;;;;19.02;5.28;;;18.90;99.90;;;;;;5014705;28;20248;-80
2021/05/12 09:04:53;;;;;;;14.20;3.28;;;19.30;99.90;;;;;;5014568;28;20252;-79
2021/05/12 09:07:19;;;;;;;18.27;3.25;;;19.60;99.90;;;;;;5014502;28;20184;-80
2021/05/12 09:09:44;;;;;;;1.45;1.33;;;19.90;99.90;;;;;;5014123;28;20275;-80
2021/05/12 09:12:12;;;;;;;2.30;0.75;;;20.10;99.90;;;;;;5014479;28;20169;-80
2021/05/12 09:14:40;;;;;;;1.50;0.68;;;19.90;99.90;;;;;;5014700;28;20157;-80
2021/05/12 09:17:06;;;;;;;1.85;0.70;;;20.10;99.90;;;;;;5014344;28;20659;-80
2021/05/12 09:19:31;;;;;;;4.13;1.10;;;20.20;99.90;;;;;;4994658;28;20212;-80
2021/05/12 09:22:05;;;;;;;1.77;0.80;;;19.90;99.90;;;;;;4994732;28;20169;-80
2021/05/12 09:24:38;;;;;;;1.88;0.43;;;19.70;99.90;;;;;;4994938;28;20165;-80
2021/05/12 09:27:05;;;;;;;6.85;1.90;;;19.70;99.90;;;;;;4997004;28;20262;-80
2021/05/12 09:29:39;;;;;;;20.48;3.80;;;19.60;99.90;;;;;;5012068;28;20198;-87
2021/05/12 09:32:16;;;;;;;16.25;1.85;;;19.90;99.90;;;;;;5003029;28;20271;-80
2021/05/12 09:35:02;;;;;;;60.30;11.18;;;20.10;99.90;;;;;;5014369;28;20248;-81
2021/05/12 09:37:37;;;;;;;10.32;0.88;;;20.40;99.90;;;;;;5024348;28;20193;-80
2021/05/12 09:40:10;;;;;;;1.92;1.00;;;20.50;99.90;;;;;;5016208;28;20574;-81
2021/05/12 09:42:37;;;;;;;33.40;7.65;;;20.10;99.90;;;;;;5033913;28;20214;-81
2021/05/12 09:45:19;;;;;;;8.85;2.67;;;20.10;99.90;;;;;;5000251;28;20168;-81
2021/05/12 09:47:47;;;;;;;9.80;1.48;;;20.00;99.90;;;;;;4995454;28;20208;-81
2021/05/12 09:50:17;;;;;;;57.40;8.02;;;20.10;99.90;;;;;;5013942;28;20700;-79
2021/05/12 09:52:44;;;;;;;39.63;6.85;;;20.20;99.90;;;;;;4997159;28;20195;-83
2021/05/12 09:55:13;;;;;;;45.95;6.80;;;20.20;99.90;;;;;;4996610;28;20179;-82
2021/05/12 09:58:00;;;;;;;7.95;1.55;;;19.90;99.90;;;;;;4995153;28;20220;-79
2021/05/12 10:00:28;;;;;;;16.98;4.13;;;19.60;99.90;;;;;;5013434;28;20177;-80
2021/05/12 10:02:56;;;;;;;3.70;1.27;;;19.60;99.90;;;;;;4995050;28;20165;-81
2021/05/12 10:05:21;;;;;;;1.35;0.70;;;19.80;99.90;;;;;;5011363;28;20580;-80
2021/05/12 10:07:57;;;;;;;6.50;1.33;;;19.90;99.90;;;;;;5011590;28;20267;-79
2021/05/12 10:10:41;;;;;;;1.52;0.90;;;19.70;99.90;;;;;;4994810;28;20191;-81
2021/05/12 10:13:16;;;;;;;1.42;0.85;;;19.70;99.90;;;;;;4994676;28;20615;-80
2021/05/12 10:15:42;;;;;;;6.20;1.30;;;19.60;99.90;;;;;;5012945;28;20209;-79
2021/05/12 10:18:10;;;;;;;2.25;1.08;;;19.90;99.90;;;;;;5013013;28;20251;-81
2021/05/12 10:20:40;;;;;;;1.80;0.82;;;19.90;99.90;;;;;;4994988;28;20260;-80
2021/05/12 10:23:06;;;;;;;1.15;0.90;;;19.60;99.90;;;;;;5013108;28;20242;-79
2021/05/12 10:25:40;;;;;;;1.75;0.75;;;19.50;99.90;;;;;;5029713;28;20664;-78
2021/05/12 10:28:10;;;;;;;1.48;1.05;;;19.70;99.90;;;;;;5028249;28;20198;-80
2021/05/12 10:30:36;;;;;;;2.75;1.35;;;19.60;99.90;;;;;;5018687;28;20169;-80
2021/05/12 10:33:11;;;;;;;5.38;1.25;;;19.70;99.90;;;;;;5014413;28;20251;-80
2021/05/12 10:35:39;;;;;;;3.38;1.40;;;20.10;99.90;;;;;;5015018;28;20156;-80
2021/05/12 10:38:10;;;;;;;2.17;0.93;;;20.20;99.90;;;;;;4996893;28;20228;-80
2021/05/12 10:40:42;;;;;;;0.77;0.50;;;20.30;99.90;;;;;;5012312;28;20188;-80
2021/05/12 10:43:22;;;;;;;2.78;1.25;;;20.20;99.90;;;;;;4994249;28;20272;-80
2021/05/12 10:45:53;;;;;;;1.17;0.90;;;19.60;99.90;;;;;;5012092;28;20166;-80
2021/05/12 10:48:29;;;;;;;15.45;1.23;;;19.20;99.90;;;;;;4994735;28;20244;-80
2021/05/12 10:50:55;;;;;;;3.00;0.93;;;19.50;99.90;;;;;;5013581;28;20227;-81
2021/05/12 10:53:23;;;;;;;1.70;0.68;;;19.30;99.90;;;;;;5012328;28;20581;-82
2021/05/12 10:55:58;;;;;;;1.10;0.90;;;18.90;99.90;;;;;;5012660;28;20174;-80
2021/05/12 10:58:27;;;;;;;2.25;0.73;;;18.70;99.90;;;;;;5012334;28;20687;-81
2021/05/12 11:00:56;;;;;;;0.95;0.40;;;18.60;99.90;;;;;;5011440;28;20170;-80
2021/05/12 11:03:22;;;;;;;2.60;0.63;;;17.90;99.90;;;;;;5012431;28;20573;-82
2021/05/12 11:05:51;;;;;;;3.13;0.60;;;17.30;99.90;;;;;;5011461;28;20252;-82
2021/05/12 11:08:20;;;;;;;4.78;0.43;;;17.20;99.90;;;;;;5012236;28;20283;-80
2021/05/12 11:10:50;;;;;;;0.63;0.47;;;17.00;99.90;;;;;;5012102;28;20181;-81
2021/05/12 11:13:24;;;;;;;1.80;1.10;;;16.60;99.90;;;;;;5012305;28;20579;-81
2021/05/12 11:16:00;;;;;;;0.63;0.50;;;16.20;99.90;;;;;;5012393;28;20187;-80
2021/05/12 11:18:37;;;;;;;0.98;0.40;;;16.40;99.90;;;;;;5011862;28;20207;-80
2021/05/12 11:21:46;;;;;;;1.90;0.68;;;16.80;99.90;;;;;;5012524;28;20164;-80
2021/05/12 11:24:18;;;;;;;2.47;0.63;;;17.10;99.90;;;;;;5011805;28;20624;-81
2021/05/12 11:32:08;;;;;;;0.50;0.43;;;18.20;99.90;;;;;;5012077;28;20178;-80
2021/05/12 11:34:36;;;;;;;0.43;0.30;;;18.40;99.90;;;;;;5012593;28;20161;-79
2021/05/12 11:37:25;;;;;;;2.13;0.40;;;18.90;99.90;;;;;;5012379;28;20202;-80
2021/05/12 11:39:53;;;;;;;0.30;0.30;;;19.20;99.90;;;;;;5012469;28;20694;-79
2021/05/12 11:42:20;;;;;;;2.75;0.38;;;19.40;99.90;;;;;;5011682;28;20322;-79
2021/05/12 11:45:00;;;;;;;2.67;1.40;;;19.50;99.90;;;;;;5011681;28;20169;-79
2021/05/12 11:47:28;;;;;;;2.58;1.10;;;19.40;99.90;;;;;;5011859;28;20690;-79
2021/05/12 11:49:54;;;;;;;4.05;0.98;;;19.70;99.90;;;;;;5012440;28;20275;-79
2021/05/12 11:52:27;;;;;;;9.07;0.93;;;19.70;99.90;;;;;;5012409;28;20259;-79
2021/05/12 11:54:53;;;;;;;5.65;1.30;;;19.20;99.90;;;;;;5012240;28;20276;-79
2021/05/12 11:57:19;;;;;;;8.98;2.80;;;19.50;99.90;;;;;;4994483;28;20341;-79
2021/05/12 11:59:44;;;;;;;3.42;1.10;;;19.90;99.90;;;;;;5012424;28;20212;-80
2021/05/12 12:02:12;;;;;;;3.58;1.38;;;19.90;99.90;;;;;;5013345;28;20194;-82
2021/05/12 12:04:46;;;;;;;7.75;2.05;;;19.80;99.90;;;;;;5012277;28;20172;-79
2021/05/12 12:07:11;;;;;;;1.83;1.10;;;19.50;99.90;;;;;;5011191;28;20184;-80
2021/05/12 12:09:37;;;;;;;2.22;0.82;;;19.20;99.90;;;;;;5012130;28;20192;-79
2021/05/12 12:12:03;;;;;;;7.30;0.90;;;18.80;99.90;;;;;;5013699;28;20523;-77
2021/05/12 12:14:29;;;;;;;8.90;0.90;;;19.00;99.90;;;;;;5016676;28;20168;-79
2021/05/12 12:16:55;;;;;;;5.82;1.75;;;18.80;99.90;;;;;;5016571;28;20200;-78
2021/05/12 12:19:20;;;;;;;3.30;1.10;;;18.80;99.90;;;;;;5015949;28;20208;-79
2021/05/12 12:21:51;;;;;;;1.40;0.93;;;18.50;99.90;;;;;;5015613;28;20291;-79
2021/05/12 12:24:22;;;;;;;3.13;1.13;;;18.70;99.90;;;;;;5015483;28;20196;-78
2021/05/12 12:26:55;;;;;;;9.27;1.23;;;18.80;99.90;;;;;;5015397;28;20188;-78
2021/05/12 12:29:22;;;;;;;11.77;2.08;;;18.90;99.90;;;;;;5015652;28;20331;-80
2021/05/12 12:31:50;;;;;;;1.83;1.20;;;18.90;99.90;;;;;;5015585;28;20192;-79
2021/05/12 12:34:34;;;;;;;5.10;1.00;;;18.80;99.90;;;;;;5015451;28;20177;-78
2021/05/12 12:37:09;;;;;;;21.45;4.35;;;18.60;99.90;;;;;;5015679;28;20212;-79
2021/05/12 12:42:22;;;;;;;2.17;1.25;;;18.70;99.90;;;;;;5015312;28;20242;-80
2021/05/12 12:44:49;;;;;;;6.18;1.38;;;18.80;99.90;;;;;;5015144;28;20175;-78
2021/05/12 12:47:19;;;;;;;6.93;2.45;;;18.70;99.90;;;;;;5015063;28;20188;-79
2021/05/12 12:50:00;;;;;;;9.55;1.40;;;19.20;99.90;;;;;;4997499;28;20664;-80
2021/05/12 12:52:37;;;;;;;2.28;1.40;;;19.70;99.90;;;;;;5014978;28;20233;-78
2021/05/12 12:55:11;;;;;;;2.50;1.00;;;20.10;99.90;;;;;;5015285;28;20173;-80